Time;durP1;ratioP1;P1;durP2;ratioP2;P2;SDS_P1;SDS_P2;PMS_P1;PMS_P2;Temp;Humidity;BMP_temperature;BMP_pressure;BME280_temperature;BME280_humidity;BME280_pressure;Samples;Min_cycle;Max_cycle;Signal;HPM_P1;HPM_P2
2023/09/08 00:01:13;;;;;;;;;;;19.40;56.80;;;;;;5030624;28;19991;-65
2023/09/08 00:03:38;;;;;;;;;;;19.30;56.80;;;;;;5031911;28;19928;-66
2023/09/08 00:06:04;;;;;;;;;;;19.30;56.70;;;;;;5031881;28;19996;-66
2023/09/08 00:08:29;;;;;;;;;;;19.20;56.70;;;;;;5032131;28;19924;-66
2023/09/08 00:10:55;;;;;;;;;;;19.20;56.80;;;;;;5031761;28;19917;-65
2023/09/08 00:13:20;;;;;;;;;;;19.10;56.90;;;;;;5031849;28;19953;-65
2023/09/08 00:15:46;;;;;;;;;;;19.10;57.10;;;;;;5030041;28;20288;-66
2023/09/08 00:18:11;;;;;;;;;;;19.10;57.30;;;;;;5031753;28;20065;-66
2023/09/08 00:20:37;;;;;;;;;;;19.10;57.30;;;;;;5031246;28;20360;-66
2023/09/08 00:23:02;;;;;;;;;;;19.00;57.60;;;;;;5030582;28;19929;-66
2023/09/08 00:25:28;;;;;;;;;;;19.00;57.50;;;;;;5031441;28;20038;-65
2023/09/08 00:27:53;;;;;;;;;;;19.00;57.50;;;;;;5031151;28;20008;-67
2023/09/08 00:30:19;;;;;;;;;;;18.90;57.30;;;;;;5031435;28;19920;-66
2023/09/08 00:32:44;;;;;;;;;;;18.80;57.20;;;;;;5030993;28;19909;-66
2023/09/08 00:35:11;;;;;;;;;;;18.80;57.40;;;;;;5031188;28;20447;-66
2023/09/08 00:37:36;;;;;;;;;;;18.80;57.40;;;;;;5031348;28;20337;-67
2023/09/08 00:40:02;;;;;;;;;;;18.80;57.60;;;;;;5031531;28;20365;-66
2023/09/08 00:42:27;;;;;;;;;;;18.80;57.70;;;;;;5031218;28;19921;-66
2023/09/08 00:44:53;;;;;;;;;;;18.70;57.70;;;;;;5031277;28;20482;-67
2023/09/08 00:47:18;;;;;;;;;;;18.70;57.60;;;;;;5030987;28;20384;-66
2023/09/08 00:49:44;;;;;;;;;;;18.70;57.60;;;;;;5031144;28;20353;-66
2023/09/08 00:52:09;;;;;;;;;;;18.70;57.60;;;;;;5031035;28;19972;-66
2023/09/08 00:54:35;;;;;;;;;;;18.60;57.60;;;;;;5031052;28;20303;-67
2023/09/08 00:57:02;;;;;;;;;;;18.60;57.70;;;;;;5030987;28;19924;-66
2023/09/08 00:59:27;;;;;;;;;;;18.60;57.70;;;;;;5030696;28;20349;-66
2023/09/08 01:01:52;;;;;;;;;;;18.60;57.70;;;;;;5030562;28;19991;-66
2023/09/08 01:04:18;;;;;;;;;;;18.60;57.70;;;;;;5030960;28;19995;-66
2023/09/08 01:06:44;;;;;;;;;;;18.50;57.80;;;;;;5030753;28;19967;-66
2023/09/08 01:09:11;;;;;;;;;;;18.50;57.90;;;;;;5031058;28;19918;-66
2023/09/08 01:11:37;;;;;;;;;;;18.50;58.00;;;;;;5030438;28;19963;-67
2023/09/08 01:14:02;;;;;;;;;;;18.50;58.00;;;;;;5029229;28;20357;-66
2023/09/08 01:16:27;;;;;;;;;;;18.50;58.00;;;;;;5030524;28;20340;-66
2023/09/08 01:18:54;;;;;;;;;;;18.50;58.00;;;;;;5030199;28;20268;-66
2023/09/08 01:21:48;;;;;;;;;;;18.40;58.10;;;;;;5030402;28;20011;-66
2023/09/08 01:24:20;;;;;;;;;;;18.40;58.10;;;;;;5030948;28;20444;-66
2023/09/08 01:26:46;;;;;;;;;;;18.30;58.00;;;;;;5030351;28;19924;-66
2023/09/08 01:29:12;;;;;;;;;;;18.30;58.00;;;;;;5030537;28;19921;-65
2023/09/08 01:31:38;;;;;;;;;;;18.30;57.90;;;;;;5029784;28;19909;-65
2023/09/08 01:34:06;;;;;;;;;;;18.30;58.00;;;;;;5030605;28;20331;-66
2023/09/08 01:36:32;;;;;;;;;;;18.30;58.10;;;;;;5030119;28;20395;-67
2023/09/08 01:38:58;;;;;;;;;;;18.20;58.10;;;;;;5030149;28;19930;-67
2023/09/08 01:41:23;;;;;;;;;;;18.20;58.30;;;;;;5030250;28;19917;-67
2023/09/08 01:43:49;;;;;;;;;;;18.20;58.50;;;;;;5030368;28;19948;-67
2023/09/08 01:46:14;;;;;;;;;;;18.20;58.60;;;;;;5030226;28;19913;-67
2023/09/08 01:48:39;;;;;;;;;;;18.10;58.50;;;;;;5030103;28;19925;-67
2023/09/08 01:51:05;;;;;;;;;;;18.10;58.50;;;;;;5030113;28;19917;-67
2023/09/08 01:53:30;;;;;;;;;;;18.10;58.60;;;;;;5028989;28;19917;-67
2023/09/08 01:55:56;;;;;;;;;;;18.10;58.50;;;;;;5030014;28;19917;-67
2023/09/08 01:58:21;;;;;;;;;;;18.00;58.60;;;;;;5030361;28;19928;-67
2023/09/08 02:00:51;;;;;;;;;;;18.00;58.70;;;;;;5029913;28;20276;-66
2023/09/08 02:03:16;;;;;;;;;;;18.00;58.80;;;;;;5030292;28;19928;-67
2023/09/08 02:05:42;;;;;;;;;;;18.00;58.80;;;;;;5029993;28;19910;-67
2023/09/08 02:08:07;;;;;;;;;;;17.90;58.90;;;;;;5029863;28;19923;-67
2023/09/08 02:10:33;;;;;;;;;;;17.90;59.00;;;;;;5030034;28;20016;-67
2023/09/08 02:12:58;;;;;;;;;;;17.80;59.00;;;;;;5030030;28;19909;-67
2023/09/08 02:15:23;;;;;;;;;;;17.80;58.90;;;;;;5030090;28;19952;-67
2023/09/08 02:17:52;;;;;;;;;;;17.80;59.10;;;;;;5029746;28;20365;-67
2023/09/08 02:20:17;;;;;;;;;;;17.80;59.10;;;;;;5028631;28;20311;-67
2023/09/08 02:22:43;;;;;;;;;;;17.80;59.20;;;;;;5029646;28;19964;-67
2023/09/08 02:25:08;;;;;;;;;;;17.70;59.30;;;;;;5029787;28;19963;-67
2023/09/08 02:27:34;;;;;;;;;;;17.70;59.20;;;;;;5029796;28;20467;-67
2023/09/08 02:29:59;;;;;;;;;;;17.70;59.20;;;;;;5030159;28;19921;-68
2023/09/08 02:32:24;;;;;;;;;;;17.70;59.20;;;;;;5029952;28;19913;-67
2023/09/08 02:34:50;;;;;;;;;;;17.60;59.20;;;;;;5030038;28;19917;-67
2023/09/08 02:37:18;;;;;;;;;;;17.60;59.20;;;;;;5029697;28;19964;-67
2023/09/08 02:39:43;;;;;;;;;;;17.60;59.40;;;;;;5029960;28;19921;-67
2023/09/08 02:42:08;;;;;;;;;;;17.50;59.40;;;;;;5029804;28;19909;-68
2023/09/08 02:44:34;;;;;;;;;;;17.50;59.40;;;;;;5033189;28;20442;-68
2023/09/08 02:46:59;;;;;;;;;;;17.50;59.40;;;;;;5032243;28;20336;-68
2023/09/08 02:49:25;;;;;;;;;;;17.50;59.40;;;;;;5033673;28;19996;-67
2023/09/08 02:51:50;;;;;;;;;;;17.40;59.40;;;;;;5033198;28;19992;-67
2023/09/08 02:54:16;;;;;;;;;;;17.40;59.40;;;;;;5033283;28;19917;-68
2023/09/08 02:56:41;;;;;;;;;;;17.40;59.40;;;;;;5033066;28;19971;-67
2023/09/08 02:59:07;;;;;;;;;;;17.40;59.50;;;;;;5033632;28;19956;-67
2023/09/08 03:01:32;;;;;;;;;;;17.40;59.50;;;;;;5032231;28;20364;-67
2023/09/08 03:03:58;;;;;;;;;;;17.40;59.70;;;;;;5033254;28;19995;-68
2023/09/08 03:06:23;;;;;;;;;;;17.40;59.80;;;;;;5033269;28;19913;-66
2023/09/08 03:08:48;;;;;;;;;;;17.30;60.10;;;;;;5033199;28;19988;-66
2023/09/08 03:11:14;;;;;;;;;;;17.30;60.00;;;;;;5033067;28;20238;-67
2023/09/08 03:13:39;;;;;;;;;;;17.30;60.00;;;;;;5033378;28;19917;-67
2023/09/08 03:16:06;;;;;;;;;;;17.30;59.90;;;;;;5032857;28;19913;-67
2023/09/08 03:18:32;;;;;;;;;;;17.30;59.90;;;;;;5033034;28;19939;-68
2023/09/08 03:20:58;;;;;;;;;;;17.30;60.00;;;;;;5033005;28;19916;-68
2023/09/08 03:23:23;;;;;;;;;;;17.30;60.00;;;;;;5032968;28;19932;-68
2023/09/08 03:25:49;;;;;;;;;;;17.30;60.00;;;;;;5032965;28;19909;-68
2023/09/08 03:28:15;;;;;;;;;;;17.20;60.00;;;;;;5033043;28;19917;-68
2023/09/08 03:30:40;;;;;;;;;;;17.20;60.00;;;;;;5033027;28;19985;-67
2023/09/08 03:33:06;;;;;;;;;;;17.20;60.10;;;;;;5032685;28;19921;-67
2023/09/08 03:35:31;;;;;;;;;;;17.20;60.00;;;;;;5032629;28;20004;-68
2023/09/08 03:37:56;;;;;;;;;;;17.10;59.90;;;;;;5032437;28;19916;-67
2023/09/08 03:40:22;;;;;;;;;;;17.20;59.80;;;;;;5032579;28;20007;-68
2023/09/08 03:42:47;;;;;;;;;;;17.10;59.80;;;;;;5032627;28;19963;-67
2023/09/08 03:45:13;;;;;;;;;;;17.10;59.70;;;;;;5032910;28;19967;-68
2023/09/08 03:47:38;;;;;;;;;;;17.10;59.70;;;;;;5032486;28;19913;-68
2023/09/08 03:50:04;;;;;;;;;;;17.00;59.80;;;;;;5032744;28;20369;-67
2023/09/08 03:52:29;;;;;;;;;;;17.00;59.90;;;;;;5032225;28;19917;-68
2023/09/08 03:54:55;;;;;;;;;;;17.00;60.10;;;;;;5032200;28;19924;-67
2023/09/08 03:57:20;;;;;;;;;;;16.90;60.10;;;;;;5032466;28;19944;-67
2023/09/08 03:59:45;;;;;;;;;;;16.90;60.40;;;;;;5032766;28;19963;-68
2023/09/08 04:02:11;;;;;;;;;;;16.90;60.60;;;;;;5032267;28;19913;-67
2023/09/08 04:04:36;;;;;;;;;;;16.90;60.60;;;;;;5032605;28;19928;-68
2023/09/08 04:07:02;;;;;;;;;;;16.80;60.60;;;;;;5032167;28;20346;-68
2023/09/08 04:09:31;;;;;;;;;;;16.80;60.70;;;;;;5032443;28;20361;-68
2023/09/08 04:11:57;;;;;;;;;;;16.70;60.70;;;;;;5031953;28;19959;-67
2023/09/08 04:14:26;;;;;;;;;;;16.70;60.60;;;;;;5032582;28;19960;-68
2023/09/08 04:16:52;;;;;;;;;;;16.70;60.60;;;;;;5031972;28;19962;-67
2023/09/08 04:19:18;;;;;;;;;;;16.70;60.60;;;;;;5032000;28;20378;-67
2023/09/08 04:21:43;;;;;;;;;;;16.70;60.70;;;;;;5031665;28;19914;-67
2023/09/08 04:24:10;;;;;;;;;;;16.70;60.80;;;;;;5032148;28;19917;-67
2023/09/08 04:26:36;;;;;;;;;;;16.70;60.90;;;;;;5031586;28;19982;-67
2023/09/08 04:29:01;;;;;;;;;;;16.70;60.90;;;;;;5031809;28;20000;-67
2023/09/08 04:31:27;;;;;;;;;;;16.70;61.00;;;;;;5031926;28;19910;-67
2023/09/08 04:33:53;;;;;;;;;;;16.80;61.10;;;;;;5031717;28;20273;-67
2023/09/08 04:36:18;;;;;;;;;;;16.80;61.20;;;;;;5031426;28;19917;-67
2023/09/08 04:38:44;;;;;;;;;;;16.80;61.20;;;;;;5031526;28;19940;-67
2023/09/08 04:41:10;;;;;;;;;;;16.70;61.40;;;;;;5029966;28;19932;-67
2023/09/08 04:43:35;;;;;;;;;;;16.80;61.60;;;;;;5031369;28;20043;-67
2023/09/08 04:46:03;;;;;;;;;;;16.80;61.80;;;;;;5031079;28;20349;-68
2023/09/08 04:48:28;;;;;;;;;;;16.80;61.80;;;;;;5031593;28;20031;-67
2023/09/08 04:50:53;;;;;;;;;;;16.90;61.80;;;;;;5029629;28;20007;-67
2023/09/08 04:53:19;;;;;;;;;;;17.00;61.90;;;;;;5031232;28;20347;-67
2023/09/08 04:55:44;;;;;;;;;;;17.00;62.10;;;;;;5031005;28;19963;-67
2023/09/08 04:58:10;;;;;;;;;;;17.00;62.20;;;;;;5031090;28;19917;-67
2023/09/08 05:00:38;;;;;;;;;;;17.10;62.80;;;;;;5031121;28;19931;-67
2023/09/08 05:03:04;;;;;;;;;;;17.30;63.20;;;;;;5030922;28;20006;-67
2023/09/08 05:05:29;;;;;;;;;;;17.50;63.60;;;;;;5030740;28;20456;-66
2023/09/08 05:07:56;;;;;;;;;;;17.80;63.90;;;;;;5030736;28;19910;-67
2023/09/08 05:10:24;;;;;;;;;;;18.00;64.20;;;;;;5030847;28;20127;-68
2023/09/08 05:12:50;;;;;;;;;;;18.30;64.60;;;;;;5030828;28;20325;-66
2023/09/08 05:15:16;;;;;;;;;;;18.70;65.00;;;;;;5030645;28;19920;-66
2023/09/08 05:17:42;;;;;;;;;;;19.00;65.20;;;;;;5030666;28;19913;-65
2023/09/08 05:20:08;;;;;;;;;;;19.40;65.50;;;;;;5030879;28;20027;-66
2023/09/08 05:22:34;;;;;;;;;;;19.70;65.60;;;;;;5030855;28;20361;-67
2023/09/08 05:24:59;;;;;;;;;;;20.10;65.50;;;;;;5030929;28;20020;-66
2023/09/08 05:27:25;;;;;;;;;;;20.40;65.70;;;;;;5030738;28;19916;-66
2023/09/08 05:29:50;;;;;;;;;;;20.80;66.00;;;;;;5030919;28;19972;-67
2023/09/08 05:32:16;;;;;;;;;;;21.30;66.20;;;;;;5030388;28;20350;-66
2023/09/08 05:34:41;;;;;;;;;;;21.70;66.40;;;;;;5030661;28;19917;-66
2023/09/08 05:37:07;;;;;;;;;;;22.10;66.40;;;;;;5030552;28;20368;-67
2023/09/08 05:39:32;;;;;;;;;;;22.50;66.60;;;;;;5030790;28;19917;-66
2023/09/08 05:41:57;;;;;;;;;;;23.00;66.50;;;;;;5030564;28;20439;-67
2023/09/08 05:44:25;;;;;;;;;;;23.40;66.50;;;;;;5030744;28;19928;-67
2023/09/08 05:46:50;;;;;;;;;;;23.90;66.20;;;;;;5030189;28;19909;-67
2023/09/08 05:49:17;;;;;;;;;;;24.30;66.00;;;;;;5030497;28;19924;-66
2023/09/08 05:51:43;;;;;;;;;;;24.80;65.90;;;;;;5030098;28;20278;-67
2023/09/08 05:54:08;;;;;;;;;;;25.20;65.80;;;;;;5030581;28;19973;-68
2023/09/08 05:56:34;;;;;;;;;;;25.60;65.40;;;;;;5030203;28;19913;-67
2023/09/08 05:59:01;;;;;;;;;;;26.00;65.00;;;;;;5030096;28;19921;-68
2023/09/08 06:01:26;;;;;;;;;;;26.40;64.70;;;;;;5030167;28;19981;-68
2023/09/08 06:03:52;;;;;;;;;;;26.80;63.80;;;;;;5030001;28;19960;-68
2023/09/08 06:06:17;;;;;;;;;;;27.20;63.40;;;;;;5030179;28;19917;-68
2023/09/08 06:08:43;;;;;;;;;;;27.50;63.30;;;;;;5030448;28;19917;-68
2023/09/08 06:11:08;;;;;;;;;;;27.90;63.30;;;;;;5030062;28;20002;-68
2023/09/08 06:13:33;;;;;;;;;;;28.30;62.80;;;;;;5030049;28;19917;-68
2023/09/08 06:15:59;;;;;;;;;;;28.80;62.40;;;;;;5029909;28;19921;-68
2023/09/08 06:18:27;;;;;;;;;;;29.30;62.10;;;;;;5033294;28;19913;-68
2023/09/08 06:20:53;;;;;;;;;;;29.70;61.50;;;;;;5033846;28;19939;-68
2023/09/08 06:23:19;;;;;;;;;;;30.10;60.60;;;;;;5034092;28;19975;-68
2023/09/08 06:25:45;;;;;;;;;;;30.40;59.30;;;;;;5034001;28;19959;-68
2023/09/08 06:28:10;;;;;;;;;;;30.80;59.90;;;;;;5033806;28;19914;-68
2023/09/08 06:30:36;;;;;;;;;;;31.10;59.20;;;;;;5033847;28;19913;-68
2023/09/08 06:33:01;;;;;;;;;;;31.60;58.40;;;;;;5033964;28;19940;-68
2023/09/08 06:35:27;;;;;;;;;;;32.00;57.40;;;;;;5033503;28;19920;-68
2023/09/08 06:37:52;;;;;;;;;;;32.30;56.00;;;;;;5033610;28;19909;-68
2023/09/08 06:40:18;;;;;;;;;;;32.70;54.70;;;;;;5033819;28;20004;-68
2023/09/08 06:42:43;;;;;;;;;;;33.00;53.50;;;;;;5033345;28;19913;-68
2023/09/08 06:45:09;;;;;;;;;;;33.40;52.80;;;;;;5033371;28;20164;-68
2023/09/08 06:47:34;;;;;;;;;;;33.80;51.90;;;;;;5033726;28;19991;-68
2023/09/08 06:50:00;;;;;;;;;;;34.20;49.90;;;;;;5033608;28;19913;-68
2023/09/08 06:52:25;;;;;;;;;;;34.50;48.10;;;;;;5033268;28;19921;-68
2023/09/08 06:54:51;;;;;;;;;;;34.90;46.90;;;;;;5033384;28;19928;-67
2023/09/08 06:57:18;;;;;;;;;;;35.30;45.30;;;;;;5033128;28;19988;-68
2023/09/08 06:59:43;;;;;;;;;;;35.60;44.20;;;;;;5033490;28;20379;-68
2023/09/08 07:02:09;;;;;;;;;;;35.90;42.60;;;;;;5033496;28;19975;-68
2023/09/08 07:04:34;;;;;;;;;;;36.30;41.50;;;;;;5033415;28;19924;-68
2023/09/08 07:07:03;;;;;;;;;;;36.60;40.20;;;;;;5033042;28;19920;-68
2023/09/08 07:09:29;;;;;;;;;;;36.80;39.30;;;;;;5033261;28;19917;-68
2023/09/08 07:11:54;;;;;;;;;;;37.10;38.20;;;;;;5032023;28;20420;-67
2023/09/08 07:14:20;;;;;;;;;;;37.20;36.40;;;;;;5033228;28;19953;-67
2023/09/08 07:16:45;;;;;;;;;;;37.30;35.70;;;;;;5032741;28;19913;-67
2023/09/08 07:19:10;;;;;;;;;;;37.40;35.30;;;;;;5033118;28;19956;-67
2023/09/08 07:21:36;;;;;;;;;;;37.60;35.00;;;;;;5032794;28;19909;-67
2023/09/08 07:24:01;;;;;;;;;;;37.80;34.00;;;;;;5032963;28;20015;-67
2023/09/08 07:26:27;;;;;;;;;;;38.00;33.30;;;;;;5032796;28;19909;-67
2023/09/08 07:28:52;;;;;;;;;;;38.30;33.60;;;;;;5031957;28;19921;-67
2023/09/08 07:31:18;;;;;;;;;;;38.40;33.10;;;;;;5032589;28;19952;-67
2023/09/08 07:33:43;;;;;;;;;;;38.70;32.40;;;;;;5032689;28;19943;-67
2023/09/08 07:36:09;;;;;;;;;;;38.80;32.40;;;;;;5032621;28;19917;-67
2023/09/08 07:38:34;;;;;;;;;;;39.00;30.80;;;;;;5030997;28;19968;-68
2023/09/08 07:41:03;;;;;;;;;;;39.00;30.10;;;;;;5032627;28;19909;-67
2023/09/08 07:43:28;;;;;;;;;;;39.10;30.00;;;;;;5032669;28;19917;-66
2023/09/08 07:45:54;;;;;;;;;;;39.20;29.70;;;;;;5032147;28;20385;-66
2023/09/08 07:48:19;;;;;;;;;;;39.30;28.90;;;;;;5032293;28;20369;-67
2023/09/08 07:50:45;;;;;;;;;;;39.40;28.00;;;;;;5031963;28;19917;-67
2023/09/08 07:53:10;;;;;;;;;;;39.40;28.20;;;;;;5032241;28;19940;-67
2023/09/08 07:55:36;;;;;;;;;;;39.50;28.70;;;;;;5032250;28;19949;-67
2023/09/08 07:58:03;;;;;;;;;;;39.80;28.60;;;;;;5032239;28;20361;-67
2023/09/08 08:00:29;;;;;;;;;;;39.80;27.70;;;;;;5032037;28;20052;-67
2023/09/08 08:02:55;;;;;;;;;;;39.80;27.60;;;;;;5031994;28;20011;-66
2023/09/08 08:05:20;;;;;;;;;;;39.80;27.50;;;;;;5032107;28;20006;-66
2023/09/08 08:07:46;;;;;;;;;;;40.00;27.60;;;;;;5031896;28;20317;-67
2023/09/08 08:10:12;;;;;;;;;;;40.20;27.50;;;;;;5031927;28;19924;-67
2023/09/08 08:12:38;;;;;;;;;;;40.40;27.10;;;;;;5032075;28;19913;-68
2023/09/08 08:15:07;;;;;;;;;;;40.50;26.90;;;;;;5031908;28;20058;-67
2023/09/08 08:17:32;;;;;;;;;;;40.70;26.80;;;;;;5031716;28;20395;-67
2023/09/08 08:20:06;;;;;;;;;;;40.80;26.70;;;;;;5031522;28;19910;-68
2023/09/08 08:22:40;;;;;;;;;;;41.00;26.50;;;;;;5031561;28;19913;-67
2023/09/08 08:25:06;;;;;;;;;;;41.00;26.30;;;;;;5031896;28;19960;-66
2023/09/08 08:27:32;;;;;;;;;;;41.20;26.00;;;;;;5031485;28;19984;-66
2023/09/08 08:30:00;;;;;;;;;;;41.20;26.10;;;;;;5031346;28;20054;-65
2023/09/08 08:32:29;;;;;;;;;;;41.40;25.90;;;;;;5031492;28;19952;-66
2023/09/08 08:34:54;;;;;;;;;;;41.70;25.90;;;;;;5031227;28;19917;-66
2023/09/08 08:37:20;;;;;;;;;;;42.00;25.80;;;;;;5031468;28;19962;-65
2023/09/08 08:39:45;;;;;;;;;;;42.20;25.40;;;;;;5031120;28;20444;-65
2023/09/08 08:42:11;;;;;;;;;;;42.40;25.30;;;;;;5030188;28;19909;-66
2023/09/08 08:44:37;;;;;;;;;;;42.60;25.40;;;;;;5030931;28;20348;-67
2023/09/08 08:47:05;;;;;;;;;;;42.90;25.00;;;;;;5031396;28;19921;-65
2023/09/08 08:49:31;;;;;;;;;;;42.70;24.20;;;;;;5030805;28;19915;-65
2023/09/08 08:51:57;;;;;;;;;;;42.70;24.40;;;;;;5031019;28;20392;-66
2023/09/08 08:54:24;;;;;;;;;;;42.70;24.50;;;;;;5030954;28;19997;-65
2023/09/08 08:56:49;;;;;;;;;;;42.90;24.60;;;;;;5031244;28;20427;-66
2023/09/08 08:59:15;;;;;;;;;;;43.20;24.40;;;;;;5031119;28;19909;-66
2023/09/08 09:01:41;;;;;;;;;;;43.40;24.10;;;;;;5031111;28;19957;-66
2023/09/08 09:04:07;;;;;;;;;;;43.50;23.90;;;;;;5030807;28;20282;-66
2023/09/08 09:06:33;;;;;;;;;;;43.40;23.70;;;;;;5030720;28;20436;-65
2023/09/08 09:08:59;;;;;;;;;;;43.30;23.40;;;;;;5030620;28;20050;-66
2023/09/08 09:11:25;;;;;;;;;;;43.20;23.50;;;;;;5030934;28;19924;-66
2023/09/08 09:13:50;;;;;;;;;;;43.10;23.60;;;;;;5030669;28;19909;-67
2023/09/08 09:16:16;;;;;;;;;;;43.20;23.60;;;;;;5030805;28;19921;-65
2023/09/08 09:18:53;;;;;;;;;;;43.20;23.50;;;;;;5030427;28;19959;-66
2023/09/08 09:21:18;;;;;;;;;;;43.30;23.70;;;;;;5031077;28;20347;-65
2023/09/08 09:23:44;;;;;;;;;;;43.60;23.90;;;;;;5030420;28;19960;-65
2023/09/08 09:26:11;;;;;;;;;;;43.80;23.70;;;;;;5030195;28;19917;-66
2023/09/08 09:28:46;;;;;;;;;;;44.00;23.30;;;;;;5030338;28;19910;-66
2023/09/08 09:31:12;;;;;;;;;;;44.10;23.10;;;;;;5030439;28;19920;-64
2023/09/08 09:33:37;;;;;;;;;;;44.20;23.10;;;;;;5030194;28;19917;-66
2023/09/08 09:36:03;;;;;;;;;;;44.30;23.30;;;;;;5030456;28;19929;-66
2023/09/08 09:38:29;;;;;;;;;;;44.40;23.10;;;;;;5030281;28;19909;-66
2023/09/08 09:40:55;;;;;;;;;;;44.40;22.60;;;;;;5030275;28;20387;-66
2023/09/08 09:43:21;;;;;;;;;;;44.40;22.80;;;;;;5030463;28;19910;-65
2023/09/08 09:45:46;;;;;;;;;;;44.30;23.00;;;;;;5030165;28;19921;-65
2023/09/08 09:48:12;;;;;;;;;;;44.50;23.10;;;;;;5030050;28;19919;-66
2023/09/08 09:50:39;;;;;;;;;;;44.60;22.80;;;;;;5029854;28;20281;-65
2023/09/08 09:53:09;;;;;;;;;;;44.70;22.70;;;;;;5028364;28;19913;-66
2023/09/08 09:55:38;;;;;;;;;;;44.80;22.40;;;;;;5029505;28;21365;-66
2023/09/08 09:58:04;;;;;;;;;;;44.80;22.20;;;;;;5030035;28;19914;-66
2023/09/08 10:00:30;;;;;;;;;;;44.80;22.00;;;;;;5029844;28;19939;-66
2023/09/08 10:02:56;;;;;;;;;;;44.80;22.10;;;;;;5029836;28;20376;-66
2023/09/08 10:05:23;;;;;;;;;;;44.70;21.70;;;;;;5030156;28;20332;-65
2023/09/08 10:07:49;;;;;;;;;;;44.40;21.60;;;;;;5029947;28;19909;-66
2023/09/08 10:10:18;;;;;;;;;;;44.30;22.00;;;;;;5030037;28;19921;-66
2023/09/08 10:12:45;;;;;;;;;;;44.20;22.00;;;;;;5029506;28;20384;-66
2023/09/08 10:15:11;;;;;;;;;;;44.20;22.40;;;;;;5029757;28;19924;-66
2023/09/08 10:17:37;;;;;;;;;;;44.30;22.20;;;;;;5029555;28;20377;-65
2023/09/08 10:20:10;;;;;;;;;;;44.30;22.40;;;;;;5029611;28;19925;-64
2023/09/08 10:22:37;;;;;;;;;;;44.30;22.30;;;;;;5029465;28;20284;-65
2023/09/08 10:25:05;;;;;;;;;;;44.30;22.30;;;;;;5028200;28;19926;-65
2023/09/08 10:27:32;;;;;;;;;;;44.20;22.30;;;;;;5029829;28;19920;-65
2023/09/08 10:29:59;;;;;;;;;;;44.10;22.50;;;;;;5029643;28;20281;-65
2023/09/08 10:32:25;;;;;;;;;;;44.10;22.50;;;;;;5030184;28;19909;-68
2023/09/08 10:34:52;;;;;;;;;;;44.20;22.50;;;;;;5029354;28;20380;-67
2023/09/08 10:37:21;;;;;;;;;;;44.00;22.60;;;;;;5029411;28;19913;-67
2023/09/08 10:39:46;;;;;;;;;;;44.10;22.70;;;;;;5029248;28;19916;-67
2023/09/08 10:42:18;;;;;;;;;;;44.20;22.90;;;;;;5028295;28;19917;-67
2023/09/08 10:44:47;;;;;;;;;;;44.20;22.90;;;;;;5029305;28;20004;-68
2023/09/08 10:47:12;;;;;;;;;;;44.30;22.50;;;;;;5029598;28;20387;-68
2023/09/08 10:49:38;;;;;;;;;;;44.10;22.70;;;;;;5029286;28;19913;-68
2023/09/08 10:52:10;;;;;;;;;;;44.20;22.60;;;;;;5029496;28;19925;-67
2023/09/08 10:54:47;;;;;;;;;;;44.10;22.80;;;;;;5029327;28;19916;-67
2023/09/08 10:57:14;;;;;;;;;;;44.10;22.70;;;;;;5029631;28;19921;-68
2023/09/08 10:59:44;;;;;;;;;;;44.10;22.60;;;;;;5029260;28;20438;-68
2023/09/08 11:02:30;;;;;;;;;;;44.20;22.70;;;;;;5029840;28;20377;-66
2023/09/08 11:04:55;;;;;;;;;;;44.10;22.30;;;;;;5031182;28;19959;-66
2023/09/08 11:07:20;;;;;;;;;;;43.80;22.40;;;;;;5027255;28;19917;-67
2023/09/08 11:09:46;;;;;;;;;;;43.60;22.90;;;;;;5014017;28;19914;-67
2023/09/08 11:12:11;;;;;;;;;;;43.70;23.10;;;;;;5013424;28;19917;-67
2023/09/08 11:14:37;;;;;;;;;;;43.80;23.20;;;;;;5013024;28;19910;-67
2023/09/08 11:17:02;;;;;;;;;;;43.80;22.90;;;;;;5012197;28;19964;-67
2023/09/08 11:19:42;;;;;;;;;;;43.80;22.60;;;;;;5013282;28;19910;-67
2023/09/08 11:22:08;;;;;;;;;;;43.60;22.60;;;;;;5013183;28;19918;-67
2023/09/08 11:24:35;;;;;;;;;;;43.30;22.80;;;;;;5016509;28;19963;-67
2023/09/08 11:27:00;;;;;;;;;;;43.20;22.80;;;;;;5023209;28;20401;-67
2023/09/08 11:29:26;;;;;;;;;;;42.90;22.50;;;;;;5024087;28;19917;-67
2023/09/08 11:31:53;;;;;;;;;;;42.60;23.10;;;;;;5031711;28;19916;-67
2023/09/08 11:34:20;;;;;;;;;;;42.70;23.30;;;;;;5032157;28;19957;-67
2023/09/08 11:36:46;;;;;;;;;;;42.70;23.20;;;;;;5026002;28;19924;-67
2023/09/08 11:39:11;;;;;;;;;;;42.50;23.10;;;;;;5032079;28;20408;-67
2023/09/08 11:41:37;;;;;;;;;;;42.30;23.30;;;;;;5031828;28;20357;-67
2023/09/08 11:44:02;;;;;;;;;;;42.40;23.50;;;;;;5033081;28;20329;-67
2023/09/08 11:46:28;;;;;;;;;;;42.40;23.50;;;;;;5012049;28;19909;-67
2023/09/08 11:48:53;;;;;;;;;;;42.30;23.50;;;;;;5012883;28;19921;-68
2023/09/08 11:51:22;;;;;;;;;;;42.30;23.40;;;;;;5012127;28;19918;-67
2023/09/08 11:53:47;;;;;;;;;;;42.20;23.70;;;;;;5012712;28;20015;-66
2023/09/08 11:56:13;;;;;;;;;;;42.10;23.80;;;;;;5008560;28;19972;-67
2023/09/08 11:58:39;;;;;;;;;;;42.20;24.00;;;;;;5011576;28;19918;-66
2023/09/08 12:01:04;;;;;;;;;;;42.30;23.80;;;;;;5010320;28;19913;-66
2023/09/08 12:03:30;;;;;;;;;;;42.20;23.80;;;;;;5012375;28;20008;-67
2023/09/08 12:05:55;;;;;;;;;;;42.20;23.50;;;;;;5008335;28;20384;-67
2023/09/08 12:08:24;;;;;;;;;;;42.00;23.60;;;;;;5012366;28;19953;-68
2023/09/08 12:10:53;;;;;;;;;;;41.70;23.40;;;;;;5011399;28;19921;-68
2023/09/08 12:13:22;;;;;;;;;;;41.40;24.00;;;;;;5011798;28;19928;-66
2023/09/08 12:15:48;;;;;;;;;;;41.30;24.30;;;;;;5007436;28;19910;-67
2023/09/08 12:18:15;;;;;;;;;;;41.20;24.40;;;;;;5011965;28;19946;-66
2023/09/08 12:20:41;;;;;;;;;;;41.20;24.50;;;;;;5011378;28;19909;-67
2023/09/08 12:23:15;;;;;;;;;;;41.10;24.40;;;;;;5011891;28;20409;-67
2023/09/08 12:25:47;;;;;;;;;;;41.00;24.50;;;;;;5007833;28;20464;-67
2023/09/08 12:28:12;;;;;;;;;;;41.10;24.60;;;;;;5011702;28;20366;-67
2023/09/08 12:30:38;;;;;;;;;;;41.10;24.60;;;;;;5011319;28;19909;-67
2023/09/08 12:33:04;;;;;;;;;;;41.10;24.50;;;;;;5011601;28;20274;-67
2023/09/08 12:35:30;;;;;;;;;;;41.10;24.20;;;;;;5008047;28;19910;-67
2023/09/08 12:38:02;;;;;;;;;;;40.90;24.30;;;;;;5009958;28;19922;-67
2023/09/08 12:40:28;;;;;;;;;;;40.80;24.50;;;;;;5011313;28;20391;-66
2023/09/08 12:42:53;;;;;;;;;;;40.70;24.60;;;;;;5009916;28;19934;-67
2023/09/08 12:45:25;;;;;;;;;;;40.60;24.70;;;;;;5017951;28;19909;-67
2023/09/08 12:47:51;;;;;;;;;;;40.70;24.90;;;;;;5031039;28;19986;-67
2023/09/08 12:50:16;;;;;;;;;;;40.60;24.50;;;;;;5030833;28;19913;-67
2023/09/08 12:52:42;;;;;;;;;;;40.40;24.60;;;;;;5031230;28;19944;-68
2023/09/08 12:55:07;;;;;;;;;;;40.30;24.80;;;;;;5029568;28;19909;-68
2023/09/08 12:57:33;;;;;;;;;;;40.30;25.00;;;;;;5030933;28;19921;-67
2023/09/08 12:59:59;;;;;;;;;;;40.30;25.00;;;;;;5020837;28;20366;-67
2023/09/08 13:02:24;;;;;;;;;;;40.30;24.60;;;;;;5011275;28;20017;-68
2023/09/08 13:04:50;;;;;;;;;;;40.30;24.90;;;;;;5010965;28;19916;-68
2023/09/08 13:07:16;;;;;;;;;;;40.20;25.10;;;;;;5011336;28;20003;-68
2023/09/08 13:09:41;;;;;;;;;;;40.30;25.20;;;;;;5009643;28;19967;-64
2023/09/08 13:12:08;;;;;;;;;;;40.20;25.00;;;;;;5009632;28;20320;-65
2023/09/08 13:14:34;;;;;;;;;;;40.00;24.80;;;;;;5011062;28;19921;-66
2023/09/08 13:17:00;;;;;;;;;;;39.70;25.10;;;;;;5011052;28;19917;-70
2023/09/08 13:19:25;;;;;;;;;;;39.50;25.60;;;;;;5011430;28;19916;-69
2023/09/08 13:21:51;;;;;;;;;;;39.50;25.80;;;;;;5011201;28;19910;-65
2023/09/08 13:24:16;;;;;;;;;;;39.40;25.80;;;;;;5011286;28;19913;-66
2023/09/08 13:26:42;;;;;;;;;;;39.30;25.80;;;;;;5010585;28;20285;-68
2023/09/08 13:29:07;;;;;;;;;;;39.20;26.00;;;;;;5011844;28;19918;-67
2023/09/08 13:31:33;;;;;;;;;;;39.10;25.60;;;;;;5011360;28;19909;-69
2023/09/08 13:33:58;;;;;;;;;;;38.80;25.60;;;;;;5011573;28;19957;-72
2023/09/08 13:36:24;;;;;;;;;;;38.70;25.80;;;;;;5011620;28;19926;-68
2023/09/08 13:38:50;;;;;;;;;;;38.60;26.00;;;;;;5029287;28;19972;-69
2023/09/08 13:41:15;;;;;;;;;;;38.40;26.30;;;;;;5030555;28;19909;-67
2023/09/08 13:43:40;;;;;;;;;;;38.20;26.40;;;;;;5030875;28;19917;-68
2023/09/08 13:46:06;;;;;;;;;;;37.90;26.60;;;;;;5030113;28;20369;-66
2023/09/08 13:48:31;;;;;;;;;;;37.50;26.70;;;;;;5030675;28;20409;-66
2023/09/08 13:51:01;;;;;;;;;;;37.30;26.90;;;;;;5029956;28;19921;-66
2023/09/08 13:53:26;;;;;;;;;;;37.10;27.10;;;;;;5030465;28;19921;-66
2023/09/08 13:55:52;;;;;;;;;;;36.80;27.20;;;;;;5030640;28;19916;-68
2023/09/08 13:58:17;;;;;;;;;;;36.60;27.50;;;;;;5030007;28;19999;-65
2023/09/08 14:00:43;;;;;;;;;;;36.40;27.90;;;;;;5029888;28;19909;-66
2023/09/08 14:03:09;;;;;;;;;;;36.20;28.10;;;;;;5030301;28;19921;-68
2023/09/08 14:05:34;;;;;;;;;;;36.10;28.40;;;;;;5030025;28;20086;-66
2023/09/08 14:08:00;;;;;;;;;;;35.90;28.80;;;;;;5029836;28;19917;-65
2023/09/08 14:10:25;;;;;;;;;;;35.80;28.90;;;;;;5028958;28;20016;-66